Time;durP1;ratioP1;P1;durP2;ratioP2;P2;SDS_P1;SDS_P2;PMS_P1;PMS_P2;Temp;Humidity;BMP_temperature;BMP_pressure;BME280_temperature;BME280_humidity;BME280_pressure;Samples;Min_cycle;Max_cycle;Signal;HPM_P1;HPM_P2
2022/03/23 00:00:40;;;;;;;48.83;26.73;;;5.20;99.20;;;;;;4954757;28;20058;-88
2022/03/23 00:03:06;;;;;;;46.28;26.83;;;5.10;99.30;;;;;;4933830;29;20074;-90
2022/03/23 00:05:32;;;;;;;46.97;26.17;;;5.20;99.40;;;;;;4949756;28;20136;-88
2022/03/23 00:08:00;;;;;;;46.15;25.10;;;5.10;99.60;;;;;;4954257;28;20055;-88
2022/03/23 00:10:25;;;;;;;46.35;24.85;;;5.10;99.80;;;;;;4953656;28;20047;-89
2022/03/23 00:12:51;;;;;;;41.53;23.85;;;5.10;99.80;;;;;;4961249;28;20035;-87
2022/03/23 00:15:17;;;;;;;41.10;23.25;;;5.00;99.70;;;;;;4963913;28;20043;-88
2022/03/23 00:17:43;;;;;;;41.25;23.58;;;5.00;99.70;;;;;;4970184;28;20052;-88
2022/03/23 00:20:09;;;;;;;42.53;25.30;;;4.90;99.80;;;;;;4957002;28;20059;-87
2022/03/23 00:22:35;;;;;;;48.60;26.10;;;4.90;99.90;;;;;;4960713;28;20102;-89
2022/03/23 00:25:01;;;;;;;46.10;25.77;;;4.80;99.90;;;;;;4978153;28;20038;-88
2022/03/23 00:27:26;;;;;;;47.50;25.60;;;4.80;99.90;;;;;;4954192;28;20059;-89
2022/03/23 00:29:52;;;;;;;52.38;26.08;;;4.80;99.90;;;;;;4964462;28;20043;-88
2022/03/23 00:32:18;;;;;;;51.45;27.08;;;4.80;99.90;;;;;;4968047;28;20054;-87
2022/03/23 00:34:44;;;;;;;49.88;25.70;;;4.80;99.90;;;;;;4967567;28;20046;-89
2022/03/23 00:37:13;;;;;;;44.60;24.65;;;4.70;99.90;;;;;;4982863;28;20057;-85
2022/03/23 00:39:39;;;;;;;44.83;26.58;;;4.70;99.90;;;;;;4956744;28;20045;-87
2022/03/23 00:42:05;;;;;;;49.78;27.77;;;4.70;99.90;;;;;;4940446;28;20047;-89
2022/03/23 00:44:31;;;;;;;46.33;25.15;;;4.80;99.90;;;;;;4975755;28;20193;-87
2022/03/23 00:46:57;;;;;;;47.42;27.05;;;4.90;99.90;;;;;;4970876;28;20054;-88
2022/03/23 00:49:23;;;;;;;50.05;28.13;;;4.80;99.90;;;;;;4972585;28;20062;-87
2022/03/23 00:51:53;;;;;;;55.40;29.15;;;4.80;99.90;;;;;;4972712;28;20054;-87
2022/03/23 00:54:28;;;;;;;51.78;29.23;;;4.80;99.90;;;;;;4982348;28;20051;-87
2022/03/23 00:56:53;;;;;;;57.70;30.48;;;4.70;99.90;;;;;;4953491;28;20042;-88
2022/03/23 00:59:22;;;;;;;57.30;30.00;;;4.60;99.90;;;;;;4968703;28;20843;-87
2022/03/23 01:01:48;;;;;;;56.90;29.92;;;4.70;99.90;;;;;;4969543;28;20055;-88
2022/03/23 01:04:17;;;;;;;54.83;29.17;;;4.60;99.90;;;;;;4978104;28;20057;-86
2022/03/23 01:06:43;;;;;;;57.55;30.10;;;4.60;99.90;;;;;;4946985;28;20074;-87
2022/03/23 01:09:08;;;;;;;52.85;28.83;;;4.60;99.90;;;;;;4969211;28;20104;-87
2022/03/23 01:11:34;;;;;;;54.95;30.20;;;4.50;99.90;;;;;;4952255;28;20043;-91
2022/03/23 01:14:00;;;;;;;65.53;31.95;;;4.50;99.90;;;;;;4975152;28;20057;-89
2022/03/23 01:16:26;;;;;;;56.83;31.25;;;4.50;99.90;;;;;;4982317;28;20129;-88
2022/03/23 01:18:51;;;;;;;60.55;32.97;;;4.40;99.90;;;;;;4952720;28;20061;-85
2022/03/23 01:21:18;;;;;;;62.75;31.58;;;4.40;99.90;;;;;;4958228;28;20046;-87
2022/03/23 01:23:44;;;;;;;53.55;29.88;;;4.40;99.90;;;;;;4954748;28;20050;-89
2022/03/23 01:26:10;;;;;;;51.47;28.38;;;4.40;99.90;;;;;;4978222;28;20057;-88
2022/03/23 01:28:36;;;;;;;59.95;30.13;;;4.40;99.90;;;;;;4972945;28;20054;-88
2022/03/23 01:31:02;;;;;;;51.45;28.65;;;4.40;99.90;;;;;;4977747;28;20054;-88
2022/03/23 01:33:28;;;;;;;47.85;25.40;;;4.30;99.90;;;;;;4966928;28;20046;-88
2022/03/23 01:35:54;;;;;;;50.42;26.48;;;4.30;99.90;;;;;;4985113;28;20052;-87
2022/03/23 01:38:20;;;;;;;50.75;26.88;;;4.30;99.90;;;;;;4956445;28;20050;-86
2022/03/23 01:40:46;;;;;;;50.67;27.98;;;4.20;99.90;;;;;;4948898;28;20050;-88
2022/03/23 01:43:12;;;;;;;46.80;25.35;;;4.30;99.90;;;;;;4958943;28;20051;-86
2022/03/23 01:45:37;;;;;;;51.42;27.65;;;4.20;99.90;;;;;;4956821;28;20053;-87
2022/03/23 01:48:04;;;;;;;61.97;29.48;;;4.20;99.90;;;;;;4981252;28;20072;-87
2022/03/23 01:50:29;;;;;;;65.57;33.55;;;4.10;99.90;;;;;;4963231;28;20059;-87
2022/03/23 01:52:55;;;;;;;68.72;35.83;;;4.10;99.90;;;;;;4960129;28;20058;-88
2022/03/23 01:55:21;;;;;;;65.05;32.83;;;4.10;99.90;;;;;;4956157;28;20042;-89
2022/03/23 01:57:51;;;;;;;67.03;33.78;;;4.10;99.90;;;;;;4986100;28;20073;-88
2022/03/23 02:00:18;;;;;;;59.15;30.05;;;4.00;99.90;;;;;;4938386;29;20174;-86
2022/03/23 02:02:45;;;;;;;58.95;31.42;;;4.00;99.90;;;;;;4960777;28;20066;-88
2022/03/23 02:05:18;;;;;;;48.10;26.55;;;4.10;99.90;;;;;;4971825;28;20047;-88
2022/03/23 02:07:47;;;;;;;56.65;28.80;;;4.00;99.90;;;;;;4955320;28;20055;-89
2022/03/23 02:10:12;;;;;;;52.63;27.23;;;4.00;99.90;;;;;;4955845;28;20078;-89
2022/03/23 02:12:38;;;;;;;56.78;29.95;;;4.00;99.90;;;;;;4974123;28;20133;-88
2022/03/23 02:15:13;;;;;;;50.92;28.13;;;4.00;99.90;;;;;;4954548;28;20050;-88
2022/03/23 02:17:39;;;;;;;55.60;29.33;;;3.90;99.90;;;;;;4954770;28;20543;-88
2022/03/23 02:20:06;;;;;;;60.10;30.15;;;3.80;99.90;;;;;;4959912;28;20062;-89
2022/03/23 02:22:32;;;;;;;63.58;32.42;;;3.80;99.90;;;;;;4945113;28;20053;-89
2022/03/23 02:24:57;;;;;;;63.85;33.53;;;3.80;99.90;;;;;;4964039;28;20043;-89
2022/03/23 02:27:26;;;;;;;64.55;32.58;;;3.70;99.90;;;;;;4970515;28;20077;-88
2022/03/23 02:29:55;;;;;;;65.10;32.80;;;3.70;99.90;;;;;;4958361;28;20042;-89
2022/03/23 02:32:21;;;;;;;59.03;32.05;;;3.70;99.90;;;;;;4970092;28;20043;-88
2022/03/23 02:34:47;;;;;;;66.30;33.60;;;3.60;99.90;;;;;;4961252;28;20057;-89
2022/03/23 02:37:16;;;;;;;62.08;31.05;;;3.60;99.90;;;;;;4947433;28;20225;-89
2022/03/23 02:39:42;;;;;;;60.50;31.85;;;3.60;99.90;;;;;;4956022;28;20369;-90
2022/03/23 02:42:08;;;;;;;68.32;34.13;;;3.50;99.90;;;;;;4962545;28;20481;-89
2022/03/23 02:44:36;;;;;;;69.00;34.45;;;3.50;99.90;;;;;;4981128;28;20042;-88
2022/03/23 02:47:03;;;;;;;67.55;34.08;;;3.50;99.90;;;;;;4970133;28;20050;-90
2022/03/23 02:49:28;;;;;;;64.95;32.72;;;3.50;99.90;;;;;;4957409;28;20043;-89
2022/03/23 02:51:54;;;;;;;68.03;33.33;;;3.50;99.90;;;;;;4964786;28;20070;-89
2022/03/23 03:01:52;;;;;;;70.03;34.97;;;3.40;99.90;;;;;;4974844;28;20050;-87
2022/03/23 03:03:44;;;;;;;82.05;40.13;;;3.30;99.90;;;;;;4984293;28;20057;-87
2022/03/23 03:06:09;;;;;;;75.82;37.50;;;3.30;99.90;;;;;;4962114;28;20050;-88
2022/03/23 03:08:48;;;;;;;67.40;34.75;;;3.30;99.90;;;;;;4976441;28;20117;-89
2022/03/23 03:11:19;;;;;;;78.43;38.13;;;3.20;99.90;;;;;;4950467;28;20051;-87
2022/03/23 03:13:48;;;;;;;73.40;38.47;;;3.10;99.90;;;;;;4963716;28;20058;-88
2022/03/23 03:16:14;;;;;;;84.63;39.05;;;3.20;99.90;;;;;;4958604;28;20050;-88
2022/03/23 03:18:40;;;;;;;69.50;35.22;;;3.30;99.90;;;;;;4964448;28;20038;-89
2022/03/23 03:21:07;;;;;;;77.13;37.25;;;3.20;99.90;;;;;;4987562;28;20654;-90
2022/03/23 03:23:37;;;;;;;78.03;37.97;;;3.10;99.90;;;;;;4963975;28;20146;-88
2022/03/23 03:26:05;;;;;;;76.07;36.03;;;3.10;99.90;;;;;;4927127;28;20050;-86
2022/03/23 03:28:36;;;;;;;80.53;37.50;;;3.10;99.90;;;;;;4971331;28;20051;-90
2022/03/23 03:31:03;;;;;;;76.80;37.65;;;3.10;99.90;;;;;;4966258;28;20105;-91
2022/03/23 03:33:29;;;;;;;79.82;38.45;;;3.00;99.90;;;;;;4952905;28;20050;-89
2022/03/23 03:35:54;;;;;;;80.95;38.30;;;3.00;99.90;;;;;;4987342;28;20510;-89
2022/03/23 03:38:20;;;;;;;76.63;37.70;;;3.00;99.90;;;;;;4943456;28;20186;-90
2022/03/23 03:40:46;;;;;;;68.07;36.13;;;3.00;99.90;;;;;;4957631;28;20057;-90
2022/03/23 03:43:12;;;;;;;75.47;36.50;;;3.00;99.90;;;;;;4964492;28;20369;-88
2022/03/23 03:45:38;;;;;;;67.03;34.10;;;2.90;99.90;;;;;;4956130;28;20051;-88
2022/03/23 03:48:04;;;;;;;69.65;34.42;;;2.90;99.90;;;;;;4960616;28;20050;-88
2022/03/23 03:50:34;;;;;;;70.25;36.17;;;2.90;99.90;;;;;;4950881;28;20083;-90
2022/03/23 03:53:01;;;;;;;67.38;34.47;;;2.90;99.90;;;;;;4933012;28;20043;-90
2022/03/23 03:55:26;;;;;;;63.55;32.35;;;2.90;99.90;;;;;;4944436;28;20053;-88
2022/03/23 03:57:53;;;;;;;58.88;31.63;;;3.00;99.90;;;;;;4987721;28;20042;-89
2022/03/23 04:00:19;;;;;;;54.38;28.25;;;2.90;99.90;;;;;;4977243;28;20085;-89
2022/03/23 04:02:45;;;;;;;49.42;25.25;;;2.90;99.90;;;;;;4957046;28;20058;-89
2022/03/23 04:05:11;;;;;;;44.92;23.77;;;2.90;99.90;;;;;;4968153;28;20047;-89
2022/03/23 04:07:36;;;;;;;46.25;24.13;;;2.90;99.90;;;;;;4973397;28;20510;-89
2022/03/23 04:10:06;;;;;;;45.88;24.05;;;2.90;99.90;;;;;;4953904;28;20050;-89
2022/03/23 04:12:32;;;;;;;47.95;25.30;;;2.90;99.90;;;;;;4951130;28;20049;-89
2022/03/23 04:14:57;;;;;;;60.88;30.05;;;2.80;99.90;;;;;;4968928;28;20128;-89
2022/03/23 04:17:23;;;;;;;59.35;29.88;;;2.80;99.90;;;;;;4976559;28;20108;-88
2022/03/23 04:19:49;;;;;;;56.90;30.33;;;2.70;99.90;;;;;;4962447;28;20527;-87
2022/03/23 04:22:15;;;;;;;57.10;28.15;;;2.70;99.90;;;;;;4943002;28;20092;-89
2022/03/23 04:24:41;;;;;;;59.05;30.10;;;2.70;99.90;;;;;;4946195;28;20448;-88
2022/03/23 04:27:07;;;;;;;58.53;30.80;;;2.60;99.90;;;;;;4970799;28;20105;-88
2022/03/23 04:29:32;;;;;;;59.92;29.80;;;2.60;99.90;;;;;;4952215;28;20116;-90
2022/03/23 04:31:58;;;;;;;60.47;31.10;;;2.60;99.90;;;;;;4951277;28;20039;-88
2022/03/23 04:34:25;;;;;;;56.83;29.70;;;2.60;99.90;;;;;;4970645;28;20392;-86
2022/03/23 04:36:51;;;;;;;54.63;29.05;;;2.60;99.90;;;;;;4958567;28;20121;-89
2022/03/23 04:39:17;;;;;;;52.20;28.92;;;2.60;99.90;;;;;;4945034;28;20583;-89
2022/03/23 04:41:42;;;;;;;55.70;28.80;;;2.60;99.90;;;;;;4935117;28;20050;-88
2022/03/23 04:44:08;;;;;;;51.78;28.42;;;2.50;99.90;;;;;;4943933;28;20050;-87
2022/03/23 04:46:34;;;;;;;53.95;27.25;;;2.50;99.90;;;;;;4955404;28;20047;-89
2022/03/23 04:48:59;;;;;;;45.38;25.90;;;2.50;99.90;;;;;;4939240;28;20047;-89
2022/03/23 04:51:25;;;;;;;50.40;25.70;;;2.40;99.90;;;;;;4970479;28;20051;-87
2022/03/23 04:53:52;;;;;;;44.65;24.17;;;2.40;99.90;;;;;;4980647;28;20500;-91
2022/03/23 04:56:17;;;;;;;41.70;23.13;;;2.60;99.90;;;;;;4939034;28;20043;-91
2022/03/23 04:58:43;;;;;;;47.40;23.45;;;2.50;99.90;;;;;;4984368;28;20061;-90
2022/03/23 05:01:09;;;;;;;51.30;25.00;;;2.50;99.90;;;;;;4950159;28;20055;-91
2022/03/23 05:03:35;;;;;;;44.53;23.95;;;2.40;99.90;;;;;;4961985;28;20126;-88
2022/03/23 05:06:00;;;;;;;40.17;20.75;;;2.50;99.90;;;;;;4941764;28;20146;-88
2022/03/23 05:08:26;;;;;;;39.03;21.85;;;2.40;99.90;;;;;;4941138;28;20496;-88
2022/03/23 05:10:52;;;;;;;38.00;21.58;;;2.40;99.90;;;;;;4937122;29;20062;-88
2022/03/23 05:13:18;;;;;;;37.78;21.23;;;2.30;99.90;;;;;;4962139;28;20066;-90
2022/03/23 05:15:43;;;;;;;46.80;22.73;;;2.30;99.90;;;;;;4976157;28;20137;-88
2022/03/23 05:18:09;;;;;;;47.80;24.48;;;2.40;99.90;;;;;;4960636;28;20197;-87
2022/03/23 05:20:35;;;;;;;38.70;21.33;;;2.30;99.90;;;;;;4959341;28;20049;-87
2022/03/23 05:23:02;;;;;;;44.20;23.50;;;2.30;99.90;;;;;;4976553;28;20134;-89
2022/03/23 05:25:27;;;;;;;50.05;26.48;;;2.40;99.90;;;;;;4979254;28;20054;-86
2022/03/23 05:27:53;;;;;;;59.33;28.92;;;2.30;99.90;;;;;;4973156;28;20054;-86
2022/03/23 05:30:19;;;;;;;57.88;28.77;;;2.30;99.90;;;;;;4960811;28;20042;-87
2022/03/23 05:32:45;;;;;;;56.35;29.42;;;2.30;99.90;;;;;;4964536;28;20160;-88
2022/03/23 05:35:13;;;;;;;69.22;31.85;;;2.30;99.90;;;;;;4977426;28;20062;-92
2022/03/23 05:37:40;;;;;;;69.03;33.03;;;2.30;99.90;;;;;;4972134;28;20506;-90
2022/03/23 05:40:09;;;;;;;69.75;32.20;;;2.20;99.90;;;;;;4956644;28;20050;-87
2022/03/23 05:42:34;;;;;;;65.80;32.45;;;2.30;99.90;;;;;;4972919;28;20360;-88
2022/03/23 05:45:00;;;;;;;63.78;30.20;;;2.30;99.90;;;;;;4953141;28;20042;-88
2022/03/23 05:47:26;;;;;;;58.80;28.25;;;2.30;99.90;;;;;;4975173;28;20087;-87
2022/03/23 05:49:54;;;;;;;53.83;28.25;;;2.20;99.90;;;;;;4979682;28;20055;-87
2022/03/23 05:52:20;;;;;;;63.58;29.90;;;2.20;99.90;;;;;;4938485;28;20051;-87
2022/03/23 05:54:45;;;;;;;57.15;29.10;;;2.30;99.90;;;;;;4918252;29;20111;-88
2022/03/23 05:57:11;;;;;;;59.92;27.40;;;2.30;99.90;;;;;;4922317;29;20520;-88
2022/03/23 05:59:37;;;;;;;56.63;27.85;;;2.30;99.90;;;;;;4914679;28;20055;-89
2022/03/23 06:02:03;;;;;;;57.80;29.08;;;2.30;99.90;;;;;;4926402;28;20065;-87
2022/03/23 06:04:28;;;;;;;58.42;29.75;;;2.30;99.90;;;;;;4931918;28;20130;-87
2022/03/23 06:06:54;;;;;;;65.78;30.27;;;2.30;99.90;;;;;;4937612;28;20489;-86
2022/03/23 06:09:20;;;;;;;61.40;32.05;;;2.40;99.90;;;;;;4942941;28;20051;-87
2022/03/23 06:11:47;;;;;;;61.67;31.33;;;2.40;99.90;;;;;;4923692;28;20135;-87
2022/03/23 06:14:13;;;;;;;61.00;30.63;;;2.50;99.90;;;;;;4920968;28;20050;-90
2022/03/23 06:16:38;;;;;;;61.92;30.90;;;2.50;99.90;;;;;;4928876;28;20051;-88
2022/03/23 06:19:04;;;;;;;60.17;31.65;;;2.60;99.90;;;;;;4927526;29;20640;-87
2022/03/23 06:21:30;;;;;;;66.85;33.63;;;2.70;99.90;;;;;;4914960;29;20043;-87
2022/03/23 06:23:55;;;;;;;70.57;34.83;;;2.80;99.90;;;;;;4933634;28;20047;-87
2022/03/23 06:26:21;;;;;;;68.53;35.35;;;2.90;99.90;;;;;;4934233;29;20052;-87
2022/03/23 06:28:47;;;;;;;69.47;36.38;;;3.00;99.90;;;;;;4902528;29;20054;-86
2022/03/23 06:31:13;;;;;;;72.50;37.05;;;3.20;99.90;;;;;;4902520;29;20062;-87
2022/03/23 06:33:38;;;;;;;70.65;36.47;;;3.40;99.90;;;;;;4915557;29;20127;-87
2022/03/23 06:36:04;;;;;;;67.15;35.35;;;3.70;99.90;;;;;;4936568;29;20134;-86
2022/03/23 06:38:30;;;;;;;64.03;34.72;;;3.80;99.90;;;;;;4920329;29;20063;-87
2022/03/23 06:40:56;;;;;;;58.83;33.65;;;4.00;99.90;;;;;;4918796;29;20396;-87
2022/03/23 06:43:22;;;;;;;61.28;33.15;;;4.10;99.90;;;;;;4901618;29;20138;-86
2022/03/23 06:45:48;;;;;;;55.28;32.50;;;4.10;99.90;;;;;;4916917;29;20130;-86
2022/03/23 06:48:13;;;;;;;64.90;33.30;;;4.20;99.90;;;;;;4921392;29;20051;-87
2022/03/23 06:50:39;;;;;;;64.45;35.33;;;4.20;99.90;;;;;;4921795;28;20405;-87
2022/03/23 06:53:05;;;;;;;63.45;34.22;;;4.30;99.90;;;;;;4953860;28;20051;-87
2022/03/23 06:55:31;;;;;;;65.65;36.70;;;4.30;99.90;;;;;;4951375;29;20047;-92
2022/03/23 06:57:57;;;;;;;72.07;37.60;;;4.40;99.90;;;;;;4936500;28;20559;-87
2022/03/23 07:00:22;;;;;;;65.65;36.72;;;4.40;99.90;;;;;;4961787;28;20043;-85
2022/03/23 07:02:49;;;;;;;67.03;36.60;;;4.40;99.90;;;;;;4938161;28;20051;-85
2022/03/23 07:05:17;;;;;;;70.18;36.75;;;4.40;99.90;;;;;;4954862;28;20503;-86
2022/03/23 07:10:29;;;;;;;67.60;38.92;;;4.50;99.90;;;;;;4970844;28;20154;-85
2022/03/23 07:12:56;;;;;;;75.70;41.72;;;4.60;99.90;;;;;;4933466;29;20043;-87
2022/03/23 07:15:22;;;;;;;75.65;41.53;;;4.70;99.90;;;;;;4951938;29;20055;-87
2022/03/23 07:17:48;;;;;;;76.03;41.90;;;4.80;99.90;;;;;;4951679;29;20058;-87
2022/03/23 07:20:13;;;;;;;80.60;43.28;;;5.00;99.90;;;;;;4951105;28;20051;-87
2022/03/23 07:22:39;;;;;;;76.75;42.13;;;5.00;99.90;;;;;;4952313;28;20053;-86
2022/03/23 07:25:06;;;;;;;81.25;45.08;;;5.10;99.90;;;;;;4954435;28;20496;-85
2022/03/23 07:27:31;;;;;;;89.80;47.45;;;5.20;99.90;;;;;;4970788;28;20043;-88
2022/03/23 07:29:57;;;;;;;87.85;48.10;;;5.40;99.90;;;;;;4954370;28;20503;-87
2022/03/23 07:32:23;;;;;;;85.03;46.22;;;5.50;99.90;;;;;;4954117;28;20105;-85
2022/03/23 07:34:49;;;;;;;79.75;45.40;;;5.60;99.90;;;;;;4970219;28;20051;-86
2022/03/23 07:37:15;;;;;;;80.28;44.75;;;5.70;99.90;;;;;;4970060;28;20054;-86
2022/03/23 07:39:41;;;;;;;78.85;44.17;;;5.90;99.90;;;;;;4954514;28;20058;-86
2022/03/23 07:42:07;;;;;;;80.18;43.97;;;6.00;99.90;;;;;;4970577;28;20503;-86
2022/03/23 07:44:32;;;;;;;75.50;42.03;;;6.10;99.90;;;;;;4970563;28;20059;-87
2022/03/23 07:46:59;;;;;;;75.85;42.22;;;6.20;99.90;;;;;;4968445;28;20082;-86
2022/03/23 07:49:25;;;;;;;72.63;41.63;;;6.40;99.90;;;;;;4970364;28;20494;-86
2022/03/23 07:51:50;;;;;;;62.67;38.72;;;6.50;99.90;;;;;;4969311;28;20109;-87
2022/03/23 07:54:16;;;;;;;63.58;38.78;;;6.60;99.90;;;;;;4970535;28;20054;-87
2022/03/23 07:56:42;;;;;;;61.58;37.47;;;6.80;99.90;;;;;;4951796;28;20051;-87
2022/03/23 07:59:08;;;;;;;62.83;39.88;;;6.90;99.90;;;;;;4951183;29;20133;-85
2022/03/23 08:01:34;;;;;;;60.80;37.75;;;7.10;99.90;;;;;;4935132;29;20058;-87
2022/03/23 08:04:00;;;;;;;63.78;38.03;;;7.20;99.90;;;;;;4934624;29;20051;-88
2022/03/23 08:06:27;;;;;;;63.55;38.17;;;7.30;99.90;;;;;;4953337;28;20517;-85
2022/03/23 08:08:53;;;;;;;62.90;37.42;;;7.40;99.90;;;;;;4969694;28;20431;-87
2022/03/23 08:11:19;;;;;;;57.55;35.85;;;7.60;99.90;;;;;;4970225;28;20131;-86
2022/03/23 08:13:44;;;;;;;63.65;38.00;;;7.70;99.90;;;;;;4969819;28;20095;-86
2022/03/23 08:16:11;;;;;;;55.30;35.08;;;7.80;99.90;;;;;;4952252;28;20093;-87
2022/03/23 08:18:37;;;;;;;55.63;34.15;;;8.00;99.90;;;;;;4954277;28;20513;-87
2022/03/23 08:21:03;;;;;;;52.42;33.78;;;8.20;99.90;;;;;;4953678;28;20405;-87
2022/03/23 08:23:30;;;;;;;58.95;35.50;;;8.30;99.90;;;;;;4937897;28;20148;-87
2022/03/23 08:25:56;;;;;;;52.45;33.50;;;8.40;99.90;;;;;;4948283;28;20043;-87
2022/03/23 08:28:22;;;;;;;48.92;31.60;;;8.50;99.90;;;;;;4950514;29;20134;-86
2022/03/23 08:30:48;;;;;;;50.47;29.33;;;8.60;99.90;;;;;;4949946;29;20062;-86
2022/03/23 08:33:14;;;;;;;47.15;30.13;;;8.80;99.90;;;;;;4951906;29;20047;-86
2022/03/23 08:35:39;;;;;;;54.25;33.55;;;9.00;99.90;;;;;;4962320;28;20109;-86
2022/03/23 08:38:06;;;;;;;50.67;32.60;;;9.20;99.20;;;;;;4953353;28;20053;-85
2022/03/23 08:40:32;;;;;;;49.95;31.67;;;9.30;98.70;;;;;;4953721;28;20046;-86
2022/03/23 08:42:58;;;;;;;47.15;28.50;;;9.40;98.40;;;;;;4953285;28;20058;-85
2022/03/23 08:45:25;;;;;;;43.30;27.67;;;9.50;97.80;;;;;;4951990;28;20055;-86
2022/03/23 08:47:51;;;;;;;46.08;27.27;;;9.60;96.70;;;;;;4969259;28;20054;-86
2022/03/23 08:50:17;;;;;;;40.20;25.77;;;9.80;95.50;;;;;;4969227;28;20058;-87
2022/03/23 08:52:43;;;;;;;37.45;23.38;;;10.00;94.20;;;;;;4969047;28;20058;-86
2022/03/23 08:55:15;;;;;;;35.58;22.00;;;10.20;92.60;;;;;;4949334;29;20153;-86
2022/03/23 08:57:44;;;;;;;28.27;19.80;;;10.40;90.60;;;;;;4966755;28;20444;-87
2022/03/23 09:00:11;;;;;;;29.38;20.83;;;10.50;84.90;;;;;;4965666;28;20485;-87
2022/03/23 09:02:38;;;;;;;26.70;18.88;;;10.70;83.10;;;;;;4950464;29;20480;-87
2022/03/23 09:05:04;;;;;;;23.55;16.98;;;10.90;80.60;;;;;;4961216;28;20055;-86
2022/03/23 09:07:32;;;;;;;25.73;18.45;;;11.10;76.70;;;;;;4937734;28;20469;-86
2022/03/23 09:09:58;;;;;;;30.13;17.27;;;11.30;75.20;;;;;;4936972;28;20106;-87
2022/03/23 09:12:23;;;;;;;24.65;16.88;;;11.50;71.50;;;;;;4953273;28;20047;-86
2022/03/23 09:14:49;;;;;;;25.55;16.95;;;11.70;68.30;;;;;;4949109;29;20062;-86
2022/03/23 09:17:15;;;;;;;26.15;17.75;;;12.00;65.40;;;;;;4934311;29;20481;-87
2022/03/23 09:19:41;;;;;;;23.83;16.83;;;12.10;64.20;;;;;;4962956;28;20086;-87
2022/03/23 09:22:07;;;;;;;23.80;17.55;;;12.30;61.40;;;;;;4971482;28;20440;-87
2022/03/23 09:24:35;;;;;;;24.45;17.77;;;12.50;61.30;;;;;;4983670;28;20849;-88
2022/03/23 09:27:01;;;;;;;24.77;16.67;;;12.70;60.10;;;;;;4952799;28;20054;-87
2022/03/23 09:29:27;;;;;;;25.17;17.48;;;12.90;58.40;;;;;;4969269;28;20047;-87
2022/03/23 09:31:53;;;;;;;25.30;17.13;;;13.10;57.70;;;;;;4953252;28;20121;-87
2022/03/23 09:34:18;;;;;;;24.73;18.15;;;13.20;57.00;;;;;;4969615;28;20090;-85
2022/03/23 09:39:28;;;;;;;25.08;17.10;;;13.60;55.20;;;;;;4955808;28;20047;-87
2022/03/23 09:41:57;;;;;;;25.15;17.35;;;13.80;54.10;;;;;;4968606;28;20054;-88
2022/03/23 09:44:25;;;;;;;27.77;18.92;;;14.00;52.70;;;;;;4955526;28;20047;-87
2022/03/23 09:46:51;;;;;;;21.83;15.63;;;14.40;52.50;;;;;;4956197;28;20046;-86
2022/03/23 09:49:17;;;;;;;23.45;16.05;;;14.80;50.40;;;;;;4940720;28;20061;-86
2022/03/23 09:51:46;;;;;;;19.52;15.38;;;15.30;47.90;;;;;;4955833;28;20074;-88
2022/03/23 09:54:11;;;;;;;23.88;16.33;;;16.10;46.20;;;;;;4972055;28;20065;-87
2022/03/23 09:56:37;;;;;;;21.98;15.00;;;16.90;45.10;;;;;;4972785;28;20050;-86
2022/03/23 09:59:04;;;;;;;18.13;14.25;;;17.90;42.70;;;;;;4972041;28;20055;-87
2022/03/23 10:01:34;;;;;;;20.20;14.25;;;18.70;40.00;;;;;;4956186;28;20038;-87
2022/03/23 10:04:08;;;;;;;16.98;13.68;;;19.50;37.70;;;;;;4971921;28;20477;-87
2022/03/23 10:06:42;;;;;;;17.33;14.25;;;20.40;37.10;;;;;;4956273;28;20055;-87
2022/03/23 10:09:26;;;;;;;21.48;15.93;;;21.30;35.60;;;;;;4972100;28;20905;-87
2022/03/23 10:12:16;;;;;;;18.83;14.07;;;22.00;34.10;;;;;;4971543;28;20047;-88
2022/03/23 10:15:07;;;;;;;20.83;15.30;;;22.70;33.10;;;;;;4972247;28;20090;-87
2022/03/23 10:17:42;;;;;;;21.60;15.63;;;23.30;31.00;;;;;;4971980;28;20058;-87
2022/03/23 10:20:14;;;;;;;19.85;15.18;;;23.90;31.30;;;;;;4971450;28;20097;-87
2022/03/23 10:22:48;;;;;;;18.80;14.77;;;24.40;30.00;;;;;;4940473;28;20106;-87
2022/03/23 10:25:14;;;;;;;19.45;16.00;;;24.90;29.50;;;;;;4971214;28;20054;-87
2022/03/23 10:27:40;;;;;;;19.88;15.20;;;25.20;28.50;;;;;;4956048;28;20054;-88
2022/03/23 10:30:07;;;;;;;17.13;14.73;;;25.50;28.20;;;;;;4971720;28;20054;-86
2022/03/23 10:32:37;;;;;;;15.80;14.20;;;25.90;27.40;;;;;;4955379;28;20050;-87
2022/03/23 10:35:09;;;;;;;16.73;14.43;;;26.20;26.40;;;;;;4954995;28;20050;-87
2022/03/23 10:37:35;;;;;;;20.13;14.40;;;26.20;26.30;;;;;;4971507;28;20508;-87
2022/03/23 10:40:04;;;;;;;16.90;14.77;;;26.20;26.20;;;;;;4971310;28;20134;-87
2022/03/23 10:42:34;;;;;;;21.20;14.80;;;26.40;26.20;;;;;;4955886;28;20047;-87
2022/03/23 10:45:19;;;;;;;15.80;12.93;;;26.50;25.50;;;;;;4970946;28;20058;-86
2022/03/23 10:47:46;;;;;;;15.75;12.65;;;26.70;23.70;;;;;;4971611;28;20043;-86
2022/03/23 10:50:26;;;;;;;16.77;13.75;;;26.90;25.30;;;;;;4970466;28;20047;-87
2022/03/23 10:52:56;;;;;;;20.67;13.70;;;27.20;25.10;;;;;;4954294;28;20050;-87
2022/03/23 10:55:43;;;;;;;16.70;14.48;;;27.30;24.60;;;;;;4955147;28;20062;-87
2022/03/23 10:58:20;;;;;;;20.60;13.00;;;27.50;24.50;;;;;;4976121;28;20073;-87
2022/03/23 11:00:46;;;;;;;18.95;12.35;;;27.60;23.30;;;;;;4955073;28;20828;-86
2022/03/23 11:03:12;;;;;;;20.42;12.50;;;27.60;24.20;;;;;;4954467;28;20050;-87
2022/03/23 11:05:41;;;;;;;17.83;12.15;;;27.80;24.00;;;;;;4955263;28;20053;-87
2022/03/23 11:08:24;;;;;;;17.67;13.27;;;28.10;23.60;;;;;;4970682;28;20043;-87
2022/03/23 11:16:27;;;;;;;17.88;10.38;;;29.10;23.50;;;;;;4970929;28;20059;-88
2022/03/23 11:19:12;;;;;;;21.02;10.15;;;29.10;22.60;;;;;;4970412;28;20156;-87
2022/03/23 11:22:11;;;;;;;20.10;10.82;;;29.30;23.10;;;;;;4970972;28;20050;-88
2022/03/23 11:24:42;;;;;;;17.35;10.88;;;29.60;22.00;;;;;;4970802;28;20049;-87
2022/03/23 11:27:16;;;;;;;18.33;11.00;;;29.60;22.40;;;;;;4970452;28;20161;-87
2022/03/23 11:29:43;;;;;;;21.40;11.93;;;29.70;22.40;;;;;;4954788;28;20046;-87
2022/03/23 11:32:15;;;;;;;19.35;11.73;;;29.80;22.40;;;;;;4937847;28;20445;-87
2022/03/23 11:34:46;;;;;;;19.48;10.77;;;30.00;22.10;;;;;;4954187;28;20046;-88
2022/03/23 11:37:12;;;;;;;19.90;10.50;;;30.40;22.00;;;;;;4953859;28;20560;-89
2022/03/23 11:39:41;;;;;;;18.73;8.55;;;30.40;21.70;;;;;;4954683;28;20062;-87
2022/03/23 11:42:07;;;;;;;20.90;9.00;;;30.20;20.70;;;;;;4970132;28;20137;-87
2022/03/23 11:44:36;;;;;;;21.70;7.63;;;30.10;21.00;;;;;;4938318;28;20055;-87
2022/03/23 11:47:07;;;;;;;21.00;8.55;;;30.10;20.90;;;;;;4970098;28;20101;-88
2022/03/23 11:50:05;;;;;;;24.13;10.88;;;30.10;20.50;;;;;;4970063;28;20058;-88
2022/03/23 11:52:34;;;;;;;19.30;10.85;;;30.20;20.00;;;;;;4969871;28;20047;-87
2022/03/23 11:55:37;;;;;;;18.35;11.38;;;29.90;20.10;;;;;;4954143;28;20405;-87
2022/03/23 11:58:10;;;;;;;20.80;10.52;;;30.00;20.00;;;;;;4969834;28;20050;-87
2022/03/23 12:00:42;;;;;;;19.17;9.45;;;30.50;20.70;;;;;;4970227;28;20047;-87
2022/03/23 12:03:08;;;;;;;24.02;8.63;;;30.80;20.60;;;;;;4969515;28;20054;-87
2022/03/23 12:05:36;;;;;;;20.95;9.00;;;30.90;20.40;;;;;;4969384;28;20129;-87
2022/03/23 12:08:04;;;;;;;17.02;8.32;;;31.00;20.20;;;;;;4969765;28;20059;-86
2022/03/23 12:10:32;;;;;;;22.88;8.43;;;31.10;20.40;;;;;;4953661;28;20061;-86
2022/03/23 12:13:16;;;;;;;21.33;7.78;;;31.20;19.90;;;;;;4951786;28;20047;-90
2022/03/23 12:15:59;;;;;;;17.80;8.35;;;31.20;20.40;;;;;;4968915;28;20440;-91
2022/03/23 12:19:04;;;;;;;19.58;8.60;;;31.30;20.50;;;;;;4943778;28;20113;-91
2022/03/23 12:21:40;;;;;;;23.38;10.20;;;31.60;21.20;;;;;;4897404;29;20094;-91
2022/03/23 12:24:17;;;;;;;24.77;8.98;;;31.90;19.90;;;;;;4881763;29;20714;-91
2022/03/23 12:26:50;;;;;;;20.45;8.50;;;32.00;19.50;;;;;;4933175;28;20200;-89
2022/03/23 12:29:34;;;;;;;22.40;9.68;;;31.60;19.40;;;;;;4972786;28;20055;-90
2022/03/23 12:32:06;;;;;;;23.25;9.38;;;31.60;18.90;;;;;;4963300;28;20051;-91
2022/03/23 12:34:42;;;;;;;23.85;7.47;;;31.60;19.10;;;;;;4970447;28;20058;-93
2022/03/23 12:37:10;;;;;;;21.27;8.02;;;31.90;19.40;;;;;;4952925;28;20137;-92
2022/03/23 12:39:37;;;;;;;23.83;7.68;;;31.70;19.10;;;;;;4971423;28;20046;-93
2022/03/23 12:42:12;;;;;;;24.13;8.80;;;30.90;19.00;;;;;;4949500;28;20058;-94
2022/03/23 12:44:48;;;;;;;24.55;7.45;;;30.80;19.00;;;;;;4970186;28;20047;-89
2022/03/23 12:47:20;;;;;;;23.15;7.03;;;30.50;19.00;;;;;;4969188;28;20055;-87
2022/03/23 12:58:17;;;;;;;16.02;5.55;;;30.40;19.60;;;;;;4969088;28;20113;-87
2022/03/23 13:00:49;;;;;;;18.20;6.15;;;30.30;19.50;;;;;;4969673;28;20111;-87
2022/03/23 13:03:37;;;;;;;19.77;5.55;;;30.60;19.70;;;;;;4952638;28;20619;-87
2022/03/23 13:06:09;;;;;;;13.77;5.63;;;31.00;19.50;;;;;;4969218;28;20054;-88